createdAt,value
2022-11-22T05:17:56.660Z,11.57
2022-11-22T05:20:23.075Z,8.65
2022-11-22T05:23:08.235Z,8.73
2022-11-22T05:25:34.708Z,7.40
2022-11-22T05:28:01.219Z,7.97
2022-11-22T05:30:27.664Z,7.47
2022-11-22T05:32:54.844Z,6.60
2022-11-22T05:35:21.280Z,6.63
2022-11-22T05:37:47.685Z,7.03
2022-11-22T05:40:14.361Z,7.05
2022-11-22T05:42:40.816Z,5.72
2022-11-22T05:45:07.923Z,6.72
2022-11-22T05:47:36.010Z,6.95
2022-11-22T05:50:09.854Z,6.78
2022-11-22T05:52:36.447Z,6.78
2022-11-22T05:55:03.021Z,5.72
2022-11-22T05:57:31.694Z,6.68
2022-11-22T05:59:58.241Z,5.63
2022-11-22T06:02:25.833Z,6.22
2022-11-22T06:05:42.054Z,5.78
2022-11-22T06:08:08.464Z,4.90
2022-11-22T06:10:39.128Z,5.40
2022-11-22T06:13:05.617Z,5.57
2022-11-22T06:15:32.045Z,5.45
2022-11-22T06:17:58.472Z,5.15
2022-11-22T06:20:25.074Z,6.05
2022-11-22T06:22:51.501Z,5.30
2022-11-22T06:25:17.957Z,5.22
2022-11-22T06:27:44.390Z,5.38
2022-11-22T06:30:11.392Z,6.05
2022-11-22T06:32:37.850Z,4.53
2022-11-22T06:35:04.628Z,5.20
2022-11-22T06:37:31.263Z,5.10
2022-11-22T06:39:57.782Z,5.40
2022-11-22T06:42:24.331Z,4.43
2022-11-22T06:44:50.754Z,3.67
2022-11-22T06:47:17.673Z,3.38
2022-11-22T06:49:45.369Z,3.60
2022-11-22T06:52:12.192Z,3.40
2022-11-22T06:54:38.709Z,3.75
2022-11-22T06:57:05.273Z,3.92
2022-11-22T06:59:32.171Z,3.75
2022-11-22T07:02:04.508Z,3.28
2022-11-22T07:04:32.597Z,4.75
2022-11-22T07:06:59.013Z,3.67
2022-11-22T07:09:25.481Z,2.80
2022-11-22T07:11:51.958Z,3.00
2022-11-22T07:14:18.496Z,3.35
2022-11-22T07:16:44.936Z,3.78
2022-11-22T07:19:11.351Z,3.03
2022-11-22T07:21:41.966Z,3.00
2022-11-22T07:24:08.739Z,3.53
2022-11-22T07:26:35.252Z,2.75
2022-11-22T07:29:01.704Z,2.88
2022-11-22T07:31:29.333Z,2.80
2022-11-22T07:33:57.651Z,2.67
2022-11-22T07:36:24.671Z,3.08
2022-11-22T07:38:51.452Z,2.28
2022-11-22T07:41:19.074Z,2.38
2022-11-22T07:43:46.818Z,3.13
2022-11-22T07:46:29.642Z,2.58
2022-11-22T07:48:56.199Z,2.17
2022-11-22T07:51:22.692Z,2.70
2022-11-22T07:53:49.174Z,2.72
2022-11-22T07:56:16.014Z,2.97
2022-11-22T07:58:42.682Z,2.17
2022-11-22T08:01:11.901Z,2.40
2022-11-22T08:03:39.054Z,2.00
2022-11-22T08:06:08.048Z,2.45
2022-11-22T08:08:35.606Z,1.73
2022-11-22T08:11:02.274Z,2.55
2022-11-22T08:13:29.289Z,2.20
2022-11-22T08:15:59.637Z,2.10
2022-11-22T08:18:28.774Z,2.05
2022-11-22T08:21:10.540Z,1.95
2022-11-22T08:23:38.031Z,2.20
2022-11-22T08:26:05.909Z,2.08
2022-11-22T08:28:32.638Z,3.40
2022-11-22T08:31:12.134Z,2.78
2022-11-22T08:33:39.304Z,3.28
2022-11-22T08:36:06.649Z,3.08
2022-11-22T08:38:33.492Z,3.13
2022-11-22T08:40:59.982Z,2.42
2022-11-22T08:43:26.422Z,2.05
2022-11-22T08:45:56.912Z,1.88
2022-11-22T08:48:30.837Z,1.70
2022-11-22T08:53:37.906Z,1.60
2022-11-22T08:56:10.692Z,1.38
2022-11-22T08:58:37.435Z,1.63
2022-11-22T09:01:08.774Z,1.50
2022-11-22T09:03:36.167Z,1.08
2022-11-22T09:09:02.795Z,1.58
2022-11-22T09:14:02.095Z,1.08
2022-11-22T09:16:31.448Z,1.58
2022-11-22T09:18:58.021Z,1.55
2022-11-22T09:21:24.487Z,1.75
2022-11-22T09:23:53.456Z,1.15
2022-11-22T09:26:25.083Z,1.35
2022-11-22T09:28:53.052Z,1.63
2022-11-22T09:31:21.838Z,1.55
2022-11-22T09:33:49.473Z,1.83
2022-11-22T09:36:18.963Z,1.10
2022-11-22T09:38:45.852Z,1.40
2022-11-22T09:41:15.483Z,1.13
2022-11-22T09:44:07.084Z,1.25
2022-11-22T09:46:56.955Z,1.05
2022-11-22T09:49:28.175Z,0.90
2022-11-22T09:52:07.445Z,0.75
2022-11-22T09:54:44.937Z,1.50
2022-11-22T09:57:22.563Z,1.67
2022-11-22T09:59:58.668Z,0.68
2022-11-22T10:02:43.364Z,1.77
2022-11-22T10:05:26.147Z,1.17
2022-11-22T10:08:01.443Z,1.23
2022-11-22T10:10:39.434Z,1.25
2022-11-22T10:13:09.819Z,0.93
2022-11-22T10:15:40.627Z,0.95
2022-11-22T10:18:39.488Z,1.08
2022-11-22T10:21:12.607Z,0.88
2022-11-22T10:23:41.956Z,1.10
2022-11-22T10:26:24.009Z,0.98
2022-11-22T10:29:09.017Z,0.90
2022-11-22T10:31:55.548Z,1.25
2022-11-22T10:34:49.799Z,1.52
2022-11-22T10:37:41.401Z,1.30
2022-11-22T10:40:25.826Z,1.30
2022-11-22T10:45:28.131Z,1.20
2022-11-22T10:48:06.742Z,0.90
2022-11-22T10:51:15.681Z,2.05
2022-11-22T10:54:10.611Z,0.75
2022-11-22T10:56:53.290Z,1.05
2022-11-22T10:59:41.103Z,1.20
2022-11-22T11:02:33.531Z,1.15
2022-11-22T11:05:04.317Z,1.67
2022-11-22T11:07:31.815Z,0.95
2022-11-22T11:10:29.477Z,1.13
2022-11-22T11:13:12.985Z,1.15
2022-11-22T11:15:45.432Z,0.95
2022-11-22T11:18:24.760Z,1.13
2022-11-22T11:20:52.586Z,1.10
2022-11-22T11:23:19.406Z,1.02
2022-11-22T11:25:48.147Z,0.90
2022-11-22T11:28:21.279Z,1.40
2022-11-22T11:31:07.280Z,0.93
2022-11-22T11:33:37.853Z,1.90
2022-11-22T11:36:11.856Z,1.00
2022-11-22T11:38:52.530Z,1.10
2022-11-22T11:41:18.984Z,1.67
2022-11-22T11:43:46.429Z,0.75
2022-11-22T11:46:18.693Z,1.48
2022-11-22T11:48:45.395Z,1.10
2022-11-22T11:51:37.692Z,1.10
2022-11-22T11:54:17.273Z,1.40
2022-11-22T11:56:55.978Z,1.75
2022-11-22T11:59:30.286Z,1.20
2022-11-22T12:02:17.648Z,1.58
2022-11-22T12:05:02.182Z,0.60
2022-11-22T12:07:38.991Z,1.45
2022-11-22T12:10:41.089Z,0.85
2022-11-22T12:13:57.811Z,0.80
2022-11-22T12:16:26.002Z,0.80
2022-11-22T12:19:40.539Z,1.10
2022-11-22T12:22:35.809Z,0.52
2022-11-22T12:25:37.141Z,1.25
2022-11-22T12:28:17.095Z,0.80
2022-11-22T12:30:45.155Z,1.30
2022-11-22T12:33:19.350Z,1.02
2022-11-22T12:35:46.668Z,0.85
2022-11-22T12:38:41.945Z,0.95
2022-11-22T12:41:13.608Z,1.10
2022-11-22T12:43:53.427Z,1.17
2022-11-22T12:46:26.559Z,0.90
2022-11-22T12:49:44.058Z,0.70
2022-11-22T12:52:33.104Z,0.70
2022-11-22T12:55:23.997Z,1.00
2022-11-22T12:58:38.221Z,0.60
2022-11-22T13:01:19.974Z,0.73
2022-11-22T13:04:01.465Z,0.50
2022-11-22T13:06:36.804Z,0.73
2022-11-22T13:09:06.960Z,0.45
2022-11-22T13:11:46.691Z,0.85
2022-11-22T13:14:21.160Z,0.95
2022-11-22T13:16:50.813Z,0.90
2022-11-22T13:19:23.611Z,0.60
2022-11-22T13:22:16.149Z,0.90
2022-11-22T13:25:04.027Z,0.50
2022-11-22T13:27:40.048Z,0.60
2022-11-22T13:30:18.072Z,0.50
2022-11-22T13:32:50.403Z,0.80
2022-11-22T13:35:16.910Z,0.57
2022-11-22T13:37:46.798Z,0.65
2022-11-22T13:40:16.412Z,0.70
2022-11-22T13:42:43.098Z,0.60
2022-11-22T13:45:25.882Z,0.57
2022-11-22T13:47:52.671Z,0.55
2022-11-22T13:50:57.883Z,0.88
2022-11-22T13:53:28.832Z,0.57
2022-11-22T13:55:58.148Z,0.90
2022-11-22T13:58:24.540Z,0.77
2022-11-22T14:00:57.278Z,0.82
2022-11-22T14:03:33.883Z,0.60
2022-11-22T14:06:01.020Z,0.68
2022-11-22T14:08:37.121Z,0.80
2022-11-22T14:11:39.060Z,0.55
2022-11-22T14:14:21.128Z,0.30
2022-11-22T14:16:54.617Z,0.98
2022-11-22T14:19:52.115Z,0.47
2022-11-22T14:22:25.011Z,0.50
2022-11-22T14:25:21.864Z,1.02
2022-11-22T14:27:58.503Z,0.85
2022-11-22T14:30:40.706Z,0.70
2022-11-22T14:33:18.674Z,0.90
2022-11-22T14:36:07.092Z,1.20
2022-11-22T14:38:35.493Z,0.65
2022-11-22T14:41:30.920Z,0.70
2022-11-22T14:44:08.052Z,0.52
2022-11-22T14:46:54.290Z,0.60
2022-11-22T14:49:39.910Z,0.95
2022-11-22T14:52:19.914Z,0.70
2022-11-22T14:54:49.755Z,0.60
2022-11-22T14:57:20.833Z,0.68
2022-11-22T15:00:08.635Z,0.60
2022-11-22T15:03:08.849Z,0.63
2022-11-22T15:09:17.683Z,0.60
2022-11-22T15:09:46.560Z,0.60
2022-11-22T15:12:38.557Z,1.08
2022-11-22T15:59:44.016Z,0.43
2022-11-22T16:02:14.965Z,0.45
2022-11-22T16:04:48.673Z,0.60
2022-11-22T16:07:37.561Z,0.22
2022-11-22T16:10:09.146Z,0.40
2022-11-22T16:12:37.653Z,0.55
2022-11-22T16:15:27.990Z,0.40
2022-11-22T16:18:12.969Z,0.40
2022-11-22T16:21:07.096Z,0.52
2022-11-22T16:23:35.234Z,0.90
2022-11-22T16:26:29.334Z,0.85
2022-11-22T16:29:10.999Z,0.60
2022-11-22T16:31:38.432Z,0.30
2022-11-22T16:34:15.558Z,0.60
2022-11-22T16:36:42.010Z,0.75
2022-11-22T16:39:08.455Z,0.55
2022-11-22T16:41:35.106Z,0.40
2022-11-22T16:44:12.573Z,0.30
2022-11-22T16:46:40.484Z,0.40
2022-11-22T16:49:21.585Z,0.50
2022-11-22T16:51:50.088Z,0.57
2022-11-22T16:54:19.336Z,0.70
2022-11-22T16:56:46.118Z,0.40
2022-11-22T16:59:12.940Z,0.55
2022-11-22T17:01:43.752Z,0.60
2022-11-22T17:04:22.457Z,0.43
2022-11-22T17:06:49.421Z,0.63
2022-11-22T17:09:15.932Z,0.60
2022-11-22T17:11:44.148Z,0.40
2022-11-22T17:14:14.590Z,0.40
2022-11-22T17:16:41.806Z,0.93
2022-11-22T17:19:30.285Z,0.50
2022-11-22T17:21:55.660Z,0.75
2022-11-22T17:24:23.826Z,0.30
2022-11-22T17:26:50.301Z,0.45
2022-11-22T17:29:35.291Z,0.43
2022-11-22T17:32:03.447Z,1.02
2022-11-22T17:34:33.894Z,0.35
2022-11-22T17:37:00.559Z,0.55
2022-11-22T17:39:27.057Z,0.30
2022-11-22T17:41:53.511Z,0.40
2022-11-22T17:44:19.968Z,0.50
2022-11-22T17:46:47.221Z,0.70
2022-11-22T17:49:16.255Z,0.50
2022-11-22T17:51:43.151Z,0.40
2022-11-22T17:54:09.982Z,0.40
2022-11-22T17:56:37.496Z,0.47
2022-11-22T17:59:04.461Z,0.43
2022-11-22T18:01:31.434Z,0.63
2022-11-22T18:03:58.076Z,0.75
2022-11-22T18:06:26.475Z,0.47
2022-11-22T18:08:53.240Z,0.45
2022-11-22T18:11:33.922Z,0.50
2022-11-22T18:14:00.382Z,0.57
2022-11-22T18:16:28.859Z,0.38
2022-11-22T18:19:01.390Z,0.30
2022-11-22T18:21:37.308Z,0.57
2022-11-22T18:24:27.889Z,0.20
2022-11-22T18:26:59.251Z,0.63
2022-11-22T18:29:42.637Z,0.50
2022-11-22T18:35:01.286Z,0.60
2022-11-22T18:37:36.576Z,0.47
2022-11-22T18:40:13.911Z,0.50
2022-11-22T18:42:58.962Z,0.63
2022-11-22T18:45:33.417Z,0.80
2022-11-22T18:48:03.559Z,0.75
2022-11-22T18:50:34.316Z,0.95
2022-11-22T18:53:03.765Z,0.80
2022-11-22T18:55:32.076Z,0.60
2022-11-22T18:58:17.786Z,1.23
2022-11-22T19:00:48.077Z,1.10
2022-11-22T19:03:14.820Z,1.17
2022-11-22T19:05:46.888Z,1.05
2022-11-22T19:08:13.580Z,1.05
2022-11-22T19:10:40.390Z,1.70
2022-11-22T19:13:08.832Z,1.00
2022-11-22T19:15:35.704Z,1.50
2022-11-22T19:18:02.235Z,1.20
2022-11-22T19:20:53.972Z,1.88
2022-11-22T19:23:27.441Z,1.23
2022-11-22T19:25:56.237Z,1.35
2022-11-22T19:28:27.991Z,1.58
2022-11-22T19:30:57.331Z,1.40
2022-11-22T19:36:33.697Z,2.10
2022-11-22T19:39:03.871Z,1.40
2022-11-22T19:41:31.340Z,1.17
2022-11-22T19:44:29.897Z,1.58
2022-11-22T19:47:28.339Z,1.30
2022-11-22T19:50:03.497Z,1.20
2022-11-22T19:55:26.395Z,0.75
2022-11-22T19:58:12.424Z,1.15
2022-11-22T20:00:54.068Z,1.50
2022-11-22T20:03:41.234Z,1.10
2022-11-22T20:06:13.548Z,1.48
2022-11-22T20:08:52.632Z,1.20
2022-11-22T20:11:47.872Z,1.23
2022-11-22T20:17:08.362Z,1.10
2022-11-22T20:19:42.036Z,1.15
2022-11-22T20:22:23.035Z,1.20
2022-11-22T20:24:50.309Z,1.25
2022-11-22T20:27:24.792Z,1.23
2022-11-22T20:30:01.536Z,1.48
2022-11-22T20:32:41.935Z,1.35
2022-11-22T20:35:31.622Z,1.15
2022-11-22T20:38:04.024Z,1.27
2022-11-22T20:40:50.099Z,1.02
2022-11-22T20:46:26.586Z,0.90
2022-11-22T20:49:10.984Z,1.13
2022-11-22T20:54:34.902Z,1.80
2022-11-22T20:57:07.930Z,1.10
2022-11-22T21:00:01.815Z,1.73
2022-11-22T21:02:33.437Z,1.27
2022-11-22T21:05:23.473Z,1.40
2022-11-22T21:08:02.448Z,1.38
2022-11-22T21:10:39.671Z,1.45
2022-11-22T21:13:11.644Z,1.40
2022-11-22T21:15:41.724Z,1.33
2022-11-22T21:18:25.825Z,1.70
2022-11-22T21:21:37.717Z,1.58
2022-11-22T21:24:16.425Z,1.50
2022-11-22T21:26:45.955Z,1.50
2022-11-22T21:29:31.991Z,1.67
2022-11-22T21:32:36.489Z,1.58
2022-11-22T21:35:12.983Z,1.63
2022-11-22T21:37:44.062Z,1.45
2022-11-22T21:40:29.276Z,1.60
2022-11-22T21:43:07.265Z,1.60
2022-11-22T21:45:39.936Z,1.90
2022-11-22T21:48:21.326Z,1.60
2022-11-22T21:51:05.472Z,1.77
2022-11-22T21:53:38.260Z,2.10
2022-11-22T22:02:13.650Z,2.05
2022-11-22T22:04:50.927Z,2.20
2022-11-22T22:07:53.003Z,2.20
2022-11-22T22:10:23.686Z,1.67
2022-11-22T22:15:49.098Z,2.10
2022-11-22T22:18:50.468Z,2.20
2022-11-22T22:24:18.481Z,2.35
2022-11-22T22:27:03.591Z,2.00
2022-11-22T22:30:34.796Z,2.00
2022-11-22T22:33:33.621Z,2.15
2022-11-22T22:36:09.444Z,2.63
2022-11-22T22:39:02.005Z,1.77
2022-11-22T22:41:36.502Z,1.90
2022-11-22T22:44:16.425Z,1.98
2022-11-22T22:46:55.958Z,2.22
2022-11-22T22:49:36.524Z,1.52
2022-11-22T22:52:13.990Z,2.28
2022-11-22T22:55:04.066Z,1.38
2022-11-22T22:57:33.715Z,1.92
